Time;durP1;ratioP1;P1;durP2;ratioP2;P2;SDS_P1;SDS_P2;PMS_P1;PMS_P2;Temp;Humidity;BMP_temperature;BMP_pressure;BME280_temperature;BME280_humidity;BME280_pressure;Samples;Min_cycle;Max_cycle;Signal;HPM_P1;HPM_P2
2022/01/20 00:03:35;;;;;;;9.95;4.60;;;;;;;-3.47;100.00;99294.78;4885038;29;20668;-60
2022/01/20 00:28:08;;;;;;;7.90;3.67;;;;;;;-3.32;100.00;99268.38;4869773;29;20133;-55
2022/01/20 00:31:07;;;;;;;10.45;4.10;;;;;;;-3.24;100.00;99277.25;4858270;29;20056;-56
2022/01/20 00:34:09;;;;;;;7.47;3.85;;;;;;;-3.22;100.00;99270.38;4884200;29;20059;-55
2022/01/20 00:39:56;;;;;;;9.70;4.50;;;;;;;-3.17;100.00;99266.19;4884870;29;20180;-57
2022/01/20 00:42:42;;;;;;;7.57;4.55;;;;;;;-3.10;100.00;99252.53;4889236;29;20044;-59
2022/01/20 00:45:27;;;;;;;11.15;4.18;;;;;;;-3.02;100.00;99264.84;4890528;29;20091;-58
2022/01/20 00:48:11;;;;;;;12.57;4.85;;;;;;;-2.97;100.00;99263.25;4887014;29;20059;-55
2022/01/20 00:50:57;;;;;;;10.20;4.30;;;;;;;-3.01;100.00;99274.38;4889363;29;20060;-56
2022/01/20 00:53:44;;;;;;;9.80;5.20;;;;;;;-3.09;100.00;99246.53;4887098;29;20091;-55
2022/01/20 00:56:29;;;;;;;13.20;5.07;;;;;;;-2.92;100.00;99273.75;4874089;29;20425;-54
2022/01/20 00:59:14;;;;;;;;;;;;;;;-2.87;100.00;99270.44;4890247;29;20398;-56
2022/01/20 01:02:03;;;;;;;13.48;4.70;;;;;;;-2.90;100.00;99267.75;4888744;29;19926;-61
2022/01/20 01:04:49;;;;;;;11.25;4.72;;;;;;;-2.88;100.00;99267.78;4889932;29;20208;-59
2022/01/20 01:10:33;;;;;;;9.50;4.22;;;;;;;-2.69;100.00;99270.84;4889944;29;20148;-59
2022/01/20 01:13:20;;;;;;;9.13;4.00;;;;;;;-2.77;100.00;99263.75;4890266;29;20113;-63
2022/01/20 01:16:08;;;;;;;9.38;4.65;;;;;;;-2.74;100.00;99258.59;4882799;29;20117;-56
2022/01/20 01:22:30;;;;;;;11.05;4.15;;;;;;;-2.74;100.00;99228.38;4872801;29;20120;-56
2022/01/20 01:25:08;;;;;;;10.15;4.40;;;;;;;-2.85;100.00;99241.94;4882200;29;20091;-55
2022/01/20 01:27:54;;;;;;;7.97;3.85;;;;;;;-2.84;100.00;99233.31;4885138;29;20056;-55
2022/01/20 01:33:53;;;;;;;11.43;4.07;;;;;;;-2.82;100.00;99236.81;4870866;29;20117;-61
2022/01/20 01:39:40;;;;;;;8.98;3.60;;;;;;;-2.67;100.00;99224.19;4858004;29;20148;-57
2022/01/20 01:42:33;;;;;;;10.45;5.07;;;;;;;-2.74;100.00;99227.47;4880318;29;20162;-53
2022/01/20 01:45:25;;;;;;;10.55;4.70;;;;;;;-2.63;100.00;99226.03;4893181;29;20052;-56
2022/01/20 01:48:11;;;;;;;10.27;4.32;;;;;;;-2.73;100.00;99222.34;4887659;29;20128;-50
2022/01/20 01:51:01;;;;;;;8.43;4.22;;;;;;;-2.72;100.00;99218.03;4918103;29;20192;-52
2022/01/20 01:53:48;;;;;;;9.68;4.82;;;;;;;-2.60;100.00;99221.81;4909857;29;20086;-63
2022/01/20 01:56:35;;;;;;;;;;;;;;;-2.64;100.00;99213.91;4893577;29;20547;-65
2022/01/20 01:59:23;;;;;;;12.00;4.13;;;;;;;-2.64;100.00;99208.72;4894764;29;20460;-61
2022/01/20 02:02:24;;;;;;;10.65;3.58;;;;;;;-2.62;100.00;99204.41;4893254;29;20216;-61
2022/01/20 02:05:12;;;;;;;6.80;2.88;;;;;;;-2.73;100.00;99193.81;4878682;29;20059;-63
2022/01/20 02:08:26;;;;;;;11.93;3.60;;;;;;;-2.60;100.00;99219.19;4890805;29;20104;-57
2022/01/20 02:20:26;;;;;;;6.55;2.67;;;;;;;-2.57;100.00;99206.28;4874656;29;20059;-55
2022/01/20 02:23:27;;;;;;;9.77;3.78;;;;;;;-2.50;100.00;99197.78;4873239;29;20055;-53
2022/01/20 02:26:13;;;;;;;9.88;4.43;;;;;;;-2.48;100.00;99182.25;4867935;29;20493;-53
2022/01/20 02:28:59;;;;;;;8.18;4.07;;;;;;;-2.21;100.00;99196.69;4893052;29;20135;-55
2022/01/20 02:31:44;;;;;;;12.35;3.80;;;;;;;-2.19;100.00;99192.41;4880687;29;20100;-52
2022/01/20 02:34:31;;;;;;;9.25;4.00;;;;;;;-2.23;100.00;99197.50;4879433;29;20055;-54
2022/01/20 02:37:16;;;;;;;8.25;3.67;;;;;;;-2.33;100.00;99167.88;4891814;29;20048;-51
2022/01/20 02:45:50;;;;;;;8.32;3.92;;;;;;;-2.18;100.00;99177.72;4889963;29;20052;-56
2022/01/20 02:48:36;;;;;;;;;;;;;;;-2.06;100.00;99185.75;4863656;29;20052;-54
2022/01/20 02:51:22;;;;;;;10.43;4.05;;;;;;;-2.20;100.00;99172.50;4888886;29;19918;-56
2022/01/20 02:54:10;;;;;;;11.38;3.75;;;;;;;-2.31;100.00;99171.41;4877970;29;20434;-56
2022/01/20 02:56:55;;;;;;;9.93;4.10;;;;;;;-2.31;100.00;99144.53;4891281;29;20075;-56
2022/01/20 02:59:40;;;;;;;9.77;4.07;;;;;;;-2.34;100.00;99160.09;4891784;29;20132;-60
2022/01/20 03:02:28;;;;;;;9.60;4.00;;;;;;;-2.25;100.00;99155.94;4886418;29;20122;-58
2022/01/20 03:05:14;;;;;;;8.10;3.92;;;;;;;-2.37;100.00;99144.44;4891842;29;20056;-59
2022/01/20 03:08:04;;;;;;;11.35;3.95;;;;;;;-2.32;100.00;99148.00;4891821;29;20059;-59
2022/01/20 03:10:49;;;;;;;10.95;4.57;;;;;;;-2.32;100.00;99145.41;4881432;29;20489;-69
2022/01/20 03:13:34;;;;;;;11.13;3.97;;;;;;;-2.34;100.00;99144.50;4872091;29;20089;-72
2022/01/20 03:16:19;;;;;;;10.30;4.05;;;;;;;-2.40;100.00;99142.66;4879018;29;20056;-69
2022/01/20 03:19:04;;;;;;;7.90;3.63;;;;;;;-2.51;100.00;99143.25;4880914;29;20064;-72
2022/01/20 03:21:49;;;;;;;10.43;3.92;;;;;;;-2.46;100.00;99134.72;4903326;29;20091;-62
2022/01/20 03:24:33;;;;;;;9.50;3.75;;;;;;;-2.48;100.00;99144.22;4901000;29;20108;-60
2022/01/20 03:27:18;;;;;;;12.15;4.63;;;;;;;-2.54;100.00;99154.44;4894511;29;20096;-62
2022/01/20 03:30:04;;;;;;;12.20;3.20;;;;;;;-2.60;100.00;99123.22;4876102;29;20151;-56
2022/01/20 03:32:51;;;;;;;12.07;4.28;;;;;;;-2.52;100.00;99125.94;4885794;29;20059;-59
2022/01/20 03:35:36;;;;;;;8.90;4.30;;;;;;;-2.53;100.00;99119.88;4897231;29;20104;-58
2022/01/20 03:38:39;;;;;;;9.18;4.45;;;;;;;-2.55;100.00;99125.88;4874015;29;20145;-57
2022/01/20 03:41:24;;;;;;;10.05;4.75;;;;;;;-2.41;100.00;99111.47;4896021;29;20169;-58
2022/01/20 03:44:13;;;;;;;8.70;3.80;;;;;;;-2.46;100.00;99119.16;4862895;29;20100;-56
2022/01/20 03:47:00;;;;;;;;;;;;;;;-2.42;100.00;99123.56;4893439;29;20079;-55
2022/01/20 03:52:47;;;;;;;12.68;4.65;;;;;;;-2.41;100.00;99120.13;4877780;29;20047;-60
2022/01/20 03:55:33;;;;;;;;;;;;;;;-2.38;100.00;99122.78;4889418;29;20188;-61
2022/01/20 03:58:36;;;;;;;12.40;4.65;;;;;;;-2.43;100.00;99115.75;4882913;29;20407;-59
2022/01/20 04:01:25;;;;;;;6.55;3.65;;;;;;;-2.45;100.00;99117.47;4890154;29;20077;-71
2022/01/20 04:04:23;;;;;;;9.07;3.95;;;;;;;-2.50;100.00;99116.50;4878238;29;20047;-59
2022/01/20 04:07:22;;;;;;;9.77;4.20;;;;;;;-2.58;100.00;99105.94;4889676;29;20143;-60
2022/01/20 04:10:09;;;;;;;10.00;4.50;;;;;;;-2.62;100.00;99088.56;4875442;29;20091;-71
2022/01/20 04:12:54;;;;;;;12.10;4.60;;;;;;;-2.48;100.00;99096.63;4876766;29;20082;-59
2022/01/20 04:15:40;;;;;;;8.75;3.55;;;;;;;-2.60;100.00;99081.69;4889405;29;20054;-57
2022/01/20 04:18:27;;;;;;;13.52;4.45;;;;;;;-2.49;100.00;99100.06;4891151;29;20055;-56
2022/01/20 04:21:12;;;;;;;12.75;4.38;;;;;;;-2.53;100.00;99088.75;4889413;29;20047;-57
2022/01/20 04:23:59;;;;;;;9.60;4.32;;;;;;;-2.43;100.00;99098.47;4865005;29;20204;-55
2022/01/20 04:26:45;;;;;;;15.05;5.25;;;;;;;-2.41;100.00;99093.31;4889475;29;20071;-57
2022/01/20 04:29:32;;;;;;;9.88;3.92;;;;;;;-2.46;100.00;99094.94;4863558;29;20055;-63
2022/01/20 04:32:17;;;;;;;13.88;5.50;;;;;;;-2.53;100.00;99090.47;4887559;29;20055;-60
2022/01/20 04:35:03;;;;;;;15.63;4.43;;;;;;;-2.51;100.00;99079.28;4888890;29;20135;-62
2022/01/20 04:37:50;;;;;;;14.02;4.90;;;;;;;-2.54;100.00;99074.03;4889959;29;20429;-59
2022/01/20 04:43:01;;;;;;;12.63;4.32;;;;;;;-2.52;100.00;99063.69;4891585;29;20044;-65
2022/01/20 04:45:53;;;;;;;11.50;4.45;;;;;;;-2.53;100.00;99072.31;4875722;29;20047;-66
2022/01/20 04:48:59;;;;;;;12.70;4.75;;;;;;;-2.41;100.00;99057.84;4888284;29;20060;-63
2022/01/20 04:57:52;;;;;;;15.27;4.38;;;;;;;-2.51;100.00;99065.41;4894127;29;20146;-58
2022/01/20 05:00:36;;;;;;;18.75;5.95;;;;;;;-2.43;100.00;99069.03;4888340;29;20051;-57
2022/01/20 05:03:41;;;;;;;19.38;6.15;;;;;;;-2.43;100.00;99072.53;4889745;29;20116;-66
2022/01/20 05:06:54;;;;;;;16.83;6.30;;;;;;;-2.41;100.00;99085.53;4887339;29;20100;-64
2022/01/20 05:09:39;;;;;;;17.00;6.15;;;;;;;-2.33;100.00;99081.38;4890516;29;20059;-57
2022/01/20 05:12:33;;;;;;;16.90;6.28;;;;;;;-2.45;100.00;99075.94;4885549;29;20134;-66
2022/01/20 05:15:20;;;;;;;13.85;6.68;;;;;;;-2.29;100.00;99057.22;4885524;29;20055;-54
2022/01/20 05:18:08;;;;;;;12.93;6.28;;;;;;;-2.37;100.00;99085.59;4889715;29;20424;-58
2022/01/20 05:23:19;;;;;;;17.67;7.10;;;;;;;-2.37;100.00;99079.56;4890620;29;20060;-58
2022/01/20 05:26:04;;;;;;;19.15;7.18;;;;;;;-2.41;100.00;99076.00;4875326;29;20115;-65
2022/01/20 05:28:49;;;;;;;16.33;7.18;;;;;;;-2.38;100.00;99070.03;4885270;29;20131;-59
2022/01/20 05:31:35;;;;;;;17.83;6.78;;;;;;;-2.48;100.00;99071.56;4871232;29;20055;-56
2022/01/20 05:34:20;;;;;;;13.98;4.78;;;;;;;-2.48;100.00;99063.78;4877983;29;20074;-54
2022/01/20 05:37:06;;;;;;;16.02;6.15;;;;;;;-2.51;100.00;99065.41;4887779;29;20139;-57
2022/01/20 05:39:52;;;;;;;16.38;7.72;;;;;;;-2.59;100.00;99051.41;4888868;29;20071;-56
2022/01/20 05:42:44;;;;;;;17.90;6.90;;;;;;;-2.49;100.00;99040.38;4888570;29;20059;-63
2022/01/20 05:45:29;;;;;;;;;;;;;;;-2.39;100.00;99048.38;4874679;29;20083;-63
2022/01/20 05:48:18;;;;;;;13.13;6.90;;;;;;;-2.37;100.00;99051.00;4891777;29;20004;-59
2022/01/20 05:51:38;;;;;;;11.57;5.63;;;;;;;-2.51;100.00;99050.72;4889273;29;20479;-56
2022/01/20 05:54:24;;;;;;;22.85;8.10;;;;;;;-2.48;100.00;99055.09;4889110;29;20055;-60
2022/01/20 05:57:10;;;;;;;12.20;6.20;;;;;;;-2.51;100.00;99055.03;4886731;29;20593;-66
2022/01/20 06:00:01;;;;;;;15.93;7.03;;;;;;;-2.50;100.00;99047.28;4875854;29;20051;-58
2022/01/20 06:05:55;;;;;;;18.60;7.18;;;;;;;-2.45;100.00;99030.06;4882701;29;20059;-63
2022/01/20 06:08:43;;;;;;;16.75;7.60;;;;;;;-2.48;100.00;99043.03;4891116;29;20117;-64
2022/01/20 06:11:35;;;;;;;14.25;5.88;;;;;;;-2.51;100.00;99042.94;4888326;29;20055;-64
2022/01/20 06:14:23;;;;;;;15.82;7.80;;;;;;;-2.50;100.00;99036.06;4875665;29;20131;-75
2022/01/20 06:17:10;;;;;;;14.98;6.35;;;;;;;-2.52;100.00;99025.66;4877129;29;20699;-66
2022/01/20 06:19:55;;;;;;;19.20;8.82;;;;;;;-2.40;100.00;99019.78;4886837;29;20141;-61
2022/01/20 06:22:41;;;;;;;20.65;7.50;;;;;;;-2.37;100.00;99027.66;4898326;29;20535;-73
2022/01/20 06:25:26;;;;;;;20.92;8.45;;;;;;;-2.38;100.00;99010.34;4889156;29;20079;-55
2022/01/20 06:28:29;;;;;;;19.15;6.80;;;;;;;-2.33;100.00;99003.50;4889681;29;20059;-58
2022/01/20 06:31:16;;;;;;;15.82;6.38;;;;;;;-2.31;100.00;99005.28;4887650;29;20060;-57
2022/01/20 06:34:01;;;;;;;19.45;7.07;;;;;;;-2.32;100.00;99023.41;4863124;29;20108;-58
2022/01/20 06:36:46;;;;;;;17.67;6.70;;;;;;;-2.32;100.00;99013.91;4897831;29;20056;-59
2022/01/20 06:39:31;;;;;;;14.35;6.30;;;;;;;-2.43;100.00;98997.25;4875035;29;20144;-60
2022/01/20 06:44:43;;;;;;;17.25;6.40;;;;;;;-2.35;100.00;99012.97;4891043;29;20052;-58
2022/01/20 06:47:32;;;;;;;14.02;6.68;;;;;;;-2.37;100.00;99017.25;4888064;29;20056;-57
2022/01/20 06:50:29;;;;;;;15.82;6.75;;;;;;;-2.20;100.00;99013.25;4894908;29;20063;-60
2022/01/20 06:53:17;;;;;;;17.77;6.47;;;;;;;-2.19;100.00;99017.59;4877402;29;20119;-69
2022/01/20 06:56:03;;;;;;;14.38;6.10;;;;;;;-2.20;100.00;99021.91;4874181;29;20048;-58
2022/01/20 06:58:47;;;;;;;19.73;7.05;;;;;;;-2.09;100.00;99012.56;4892796;29;20435;-60
2022/01/20 07:01:33;;;;;;;15.20;6.28;;;;;;;-2.15;100.00;99020.28;4893440;29;20055;-57
2022/01/20 07:04:19;;;;;;;20.75;6.47;;;;;;;-2.17;100.00;99024.53;4877039;29;20113;-69
2022/01/20 07:07:06;;;;;;;13.05;6.05;;;;;;;-2.08;100.00;99023.84;4902075;29;20095;-56
2022/01/20 07:10:18;;;;;;;17.38;6.97;;;;;;;-2.07;100.00;99003.09;4861654;29;20075;-67
2022/01/20 07:13:13;;;;;;;15.63;6.05;;;;;;;-2.02;100.00;99021.38;4878081;29;20055;-55
2022/01/20 07:15:59;;;;;;;11.93;5.82;;;;;;;-2.04;100.00;99008.34;4874904;29;20055;-56
2022/01/20 07:18:44;;;;;;;13.38;6.18;;;;;;;-1.90;100.00;99013.78;4876416;29;20052;-59
2022/01/20 07:21:29;;;;;;;14.18;6.45;;;;;;;-2.01;100.00;98991.94;4889676;29;20055;-56
2022/01/20 07:24:19;;;;;;;11.73;4.97;;;;;;;-2.01;100.00;99007.53;4874442;29;20191;-67
2022/01/20 07:27:05;;;;;;;11.68;5.28;;;;;;;-1.93;100.00;99003.34;4873289;29;20060;-58
2022/01/20 07:29:50;;;;;;;14.55;5.47;;;;;;;-1.98;100.00;98997.19;4890153;29;20620;-57
2022/01/20 07:32:35;;;;;;;15.35;5.65;;;;;;;-1.84;100.00;98991.38;4880042;29;20650;-56
2022/01/20 07:35:21;;;;;;;11.60;4.95;;;;;;;-1.95;100.00;98977.34;4879273;29;20111;-58
2022/01/20 07:38:06;;;;;;;12.30;5.47;;;;;;;-1.82;100.00;98994.84;4876011;29;20105;-55
2022/01/20 07:40:53;;;;;;;13.07;5.65;;;;;;;-1.79;100.00;98996.63;4885745;29;20072;-65
2022/01/20 07:43:40;;;;;;;12.18;5.22;;;;;;;-1.64;100.00;98995.16;4875278;29;20502;-57
2022/01/20 07:46:49;;;;;;;10.45;5.03;;;;;;;-1.70;100.00;99005.44;4876503;29;20059;-62
2022/01/20 07:49:34;;;;;;;12.75;5.97;;;;;;;-1.84;100.00;99006.97;4875346;29;20104;-55
2022/01/20 07:52:19;;;;;;;;;;;;;;;-1.72;100.00;99009.75;4891675;29;20060;-56
2022/01/20 07:55:05;;;;;;;11.82;5.88;;;;;;;-1.68;100.00;99008.06;4879649;29;20637;-56
2022/01/20 07:57:50;;;;;;;13.25;5.45;;;;;;;-1.83;100.00;99000.03;4889624;29;20520;-54
2022/01/20 08:00:37;;;;;;;11.32;4.85;;;;;;;-1.86;100.00;99011.25;4880820;29;20047;-57
2022/01/20 08:03:22;;;;;;;15.38;5.90;;;;;;;-1.68;100.00;99003.75;4881391;29;20089;-57
2022/01/20 08:06:22;;;;;;;8.90;5.07;;;;;;;-1.69;100.00;99007.22;4867815;29;20124;-57
2022/01/20 08:09:09;;;;;;;11.25;4.30;;;;;;;-1.77;100.00;99003.63;4883035;29;20531;-55
2022/01/20 08:12:07;;;;;;;9.82;4.97;;;;;;;-1.83;100.00;99000.03;4867152;29;20067;-53
2022/01/20 08:15:21;;;;;;;13.55;4.88;;;;;;;-1.76;100.00;99004.47;4857216;29;20069;-54
2022/01/20 08:18:26;;;;;;;20.80;7.63;;;;;;;-1.78;100.00;98993.19;4856981;29;20113;-57
2022/01/20 08:21:11;;;;;;;17.23;7.35;;;;;;;-1.69;100.00;98990.75;4873202;29;20514;-55
2022/01/20 08:23:56;;;;;;;15.80;7.40;;;;;;;-1.65;100.00;98989.94;4858081;29;20044;-54
2022/01/20 08:26:43;;;;;;;15.05;7.63;;;;;;;-1.61;100.00;98979.63;4840855;29;20062;-53
2022/01/20 08:29:28;;;;;;;13.32;5.90;;;;;;;-1.70;100.00;99000.25;4840975;29;20490;-56
2022/01/20 08:32:14;;;;;;;14.18;6.40;;;;;;;-1.64;100.00;98994.28;4858203;29;20068;-57
2022/01/20 08:35:24;;;;;;;12.52;5.72;;;;;;;-1.63;100.00;98988.22;4856775;29;20564;-65
2022/01/20 08:38:17;;;;;;;13.85;6.68;;;;;;;-1.71;100.00;98977.72;4864686;29;20121;-56
2022/01/20 08:41:03;;;;;;;11.68;4.93;;;;;;;-1.74;100.00;98969.00;4841447;29;20060;-55
2022/01/20 08:43:49;;;;;;;15.38;6.90;;;;;;;-1.64;100.00;98961.38;4827116;29;20056;-61
2022/01/20 08:46:34;;;;;;;14.93;6.60;;;;;;;-1.67;100.00;98957.84;4841777;29;20060;-56
2022/01/20 08:49:21;;;;;;;13.35;5.40;;;;;;;-1.66;100.00;98950.06;4852017;29;20079;-67
2022/01/20 08:52:12;;;;;;;12.70;6.07;;;;;;;-1.60;100.00;98952.78;4887064;29;20104;-59
2022/01/20 08:55:01;;;;;;;12.90;6.75;;;;;;;-1.57;100.00;98954.53;4887353;29;20056;-54
2022/01/20 08:58:12;;;;;;;14.63;5.63;;;;;;;-1.64;100.00;98955.28;4872490;29;20082;-66
2022/01/20 09:00:57;;;;;;;10.15;5.22;;;;;;;-1.63;100.00;98944.03;4889616;29;20051;-69
2022/01/20 09:03:43;;;;;;;13.30;6.25;;;;;;;-1.61;100.00;98934.56;4891286;29;20532;-69
2022/01/20 09:06:28;;;;;;;15.05;5.97;;;;;;;-1.62;100.00;98936.28;4889259;29;20505;-68
2022/01/20 09:09:27;;;;;;;10.48;4.95;;;;;;;-1.76;100.00;98906.63;4878207;29;20557;-63
2022/01/20 09:15:27;;;;;;;11.90;5.40;;;;;;;-1.64;100.00;98921.53;4891166;29;20069;-70
2022/01/20 09:15:36;;;;;;;15.05;6.22;;;;;;;-1.57;100.00;98926.84;4896081;29;20091;-55
2022/01/20 09:18:56;;;;;;;15.63;6.90;;;;;;;-1.55;100.00;98919.03;4891007;29;20079;-54
2022/01/20 09:21:44;;;;;;;11.93;6.13;;;;;;;-1.47;100.00;98918.31;4892896;29;20082;-57
2022/01/20 09:24:29;;;;;;;16.33;6.65;;;;;;;-1.47;100.00;98918.31;4895251;29;20087;-64
2022/01/20 09:27:23;;;;;;;13.07;7.07;;;;;;;-1.48;100.00;98907.88;4894459;29;20058;-56
2022/01/20 09:30:17;;;;;;;9.55;5.18;;;;;;;-1.57;100.00;98903.44;4888934;29;20825;-56
2022/01/20 09:33:24;;;;;;;13.18;5.22;;;;;;;-1.59;100.00;98906.84;4902588;29;20545;-66
2022/01/20 09:36:12;;;;;;;11.98;6.70;;;;;;;-1.54;100.00;98900.88;4882794;29;20096;-66
2022/01/20 09:38:59;;;;;;;18.23;7.28;;;;;;;-1.53;100.00;98902.66;4907364;29;20051;-56
2022/01/20 09:42:03;;;;;;;16.10;6.50;;;;;;;-1.40;100.00;98891.53;4889332;29;20055;-60
2022/01/20 09:44:53;;;;;;;12.15;6.00;;;;;;;-1.46;100.00;98901.00;4904970;29;20513;-65
2022/01/20 09:47:42;;;;;;;12.27;5.43;;;;;;;-1.49;100.00;98903.53;4907358;29;20103;-60
2022/01/20 09:50:44;;;;;;;17.67;5.70;;;;;;;-1.61;100.00;98898.19;4894108;29;20095;-55
2022/01/20 09:53:37;;;;;;;12.60;6.07;;;;;;;-1.59;100.00;98888.66;4841465;29;20058;-58
2022/01/20 09:56:56;;;;;;;12.18;5.97;;;;;;;-1.40;100.00;98875.94;4870586;29;20056;-64
2022/01/20 09:59:41;;;;;;;9.90;4.55;;;;;;;-1.65;100.00;98894.69;4866463;29;20101;-56
2022/01/20 10:02:26;;;;;;;;;;;;;;;-1.64;100.00;98883.44;4882777;29;20164;-55
2022/01/20 10:05:34;;;;;;;8.50;4.30;;;;;;;-1.74;100.00;98876.34;4874320;29;20007;-56
2022/01/20 10:08:28;;;;;;;14.77;7.10;;;;;;;-1.64;100.00;98878.22;4883869;29;20143;-65
2022/01/20 10:11:41;;;;;;;11.45;5.72;;;;;;;-1.68;100.00;98883.34;4876007;29;20123;-67
2022/01/20 10:14:55;;;;;;;10.70;5.10;;;;;;;-1.77;100.00;98857.25;4832997;29;20138;-55
2022/01/20 10:18:11;;;;;;;12.00;6.22;;;;;;;-1.63;100.00;98846.19;4834144;29;20056;-65
2022/01/20 10:21:05;;;;;;;11.15;6.07;;;;;;;-1.61;100.00;98860.09;4844381;29;20198;-56
2022/01/20 10:24:06;;;;;;;;;;;;;;;-1.60;100.00;98871.34;4823076;29;20485;-61
2022/01/20 10:27:13;;;;;;;11.90;4.43;;;;;;;-1.65;100.00;98852.22;4824456;29;19931;-54
2022/01/20 10:30:12;;;;;;;13.50;6.10;;;;;;;-1.73;100.00;98861.66;4835691;29;20594;-59
2022/01/20 10:33:01;;;;;;;10.50;5.07;;;;;;;-1.70;100.00;98867.75;4816782;29;20125;-65
2022/01/20 10:36:07;;;;;;;12.82;5.43;;;;;;;-1.66;100.00;98864.34;4818821;29;20080;-59
2022/01/20 10:38:59;;;;;;;9.60;5.10;;;;;;;-1.79;100.00;98877.13;4817739;29;20061;-56
2022/01/20 10:41:45;;;;;;;10.65;5.10;;;;;;;-1.80;100.00;98868.47;4804529;29;20065;-55
2022/01/20 10:44:51;;;;;;;12.82;5.80;;;;;;;-1.67;100.00;98860.00;4795769;29;20561;-56
2022/01/20 10:47:39;;;;;;;11.20;4.60;;;;;;;-1.78;100.00;98860.72;4837622;29;20056;-55
2022/01/20 10:50:30;;;;;;;12.73;5.63;;;;;;;-1.71;100.00;98860.81;4853632;29;20591;-57
2022/01/20 10:53:25;;;;;;;10.25;5.05;;;;;;;-1.76;100.00;98877.19;4886210;29;20200;-57
2022/01/20 10:56:13;;;;;;;13.00;4.45;;;;;;;-1.81;100.00;98863.25;4873800;29;20524;-55
2022/01/20 10:59:07;;;;;;;;;;;;;;;-1.71;100.00;98875.50;4893742;29;20043;-64
2022/01/20 11:01:59;;;;;;;9.50;4.70;;;;;;;-1.76;100.00;98862.47;4895370;29;19926;-62
2022/01/20 11:04:45;;;;;;;10.02;5.40;;;;;;;-1.82;100.00;98857.19;4894136;29;20409;-53
2022/01/20 11:07:35;;;;;;;12.73;5.63;;;;;;;-1.67;100.00;98835.72;4888657;29;20055;-58
2022/01/20 11:10:24;;;;;;;14.32;5.45;;;;;;;-1.75;100.00;98825.25;4874716;29;20060;-64
2022/01/20 11:13:30;;;;;;;13.32;5.45;;;;;;;-1.77;100.00;98833.88;4874089;29;20398;-58
2022/01/20 11:16:18;;;;;;;11.20;4.85;;;;;;;-1.86;100.00;98836.34;4888754;29;20047;-57
2022/01/20 11:19:17;;;;;;;14.10;5.45;;;;;;;-1.69;100.00;98830.53;4878840;29;20108;-55
2022/01/20 11:22:09;;;;;;;14.00;5.40;;;;;;;-1.63;100.00;98840.09;4892238;29;20530;-60
2022/01/20 11:25:08;;;;;;;16.73;6.28;;;;;;;-1.64;100.00;98840.97;4887678;29;20153;-58
2022/01/20 11:28:22;;;;;;;10.60;4.72;;;;;;;-1.77;100.00;98837.34;4875382;29;20071;-59
2022/01/20 11:31:13;;;;;;;11.23;5.65;;;;;;;-1.76;100.00;98848.59;4868213;29;20227;-56
2022/01/20 11:34:13;;;;;;;13.35;5.70;;;;;;;-1.76;100.00;98846.88;4887148;29;20060;-59
2022/01/20 11:37:06;;;;;;;;;;;;;;;-1.60;100.00;98846.25;4892397;29;20047;-53
2022/01/20 11:40:11;;;;;;;14.55;6.22;;;;;;;-1.64;100.00;98841.84;4894021;29;19989;-55
2022/01/20 11:43:11;;;;;;;18.20;7.15;;;;;;;-1.55;100.00;98820.28;4894328;29;20072;-55
2022/01/20 11:46:04;;;;;;;11.32;5.03;;;;;;;-1.58;100.00;98841.91;4860637;29;20601;-52
2022/01/20 11:48:52;;;;;;;14.20;6.38;;;;;;;-1.66;100.00;98847.88;4886413;29;20067;-65
2022/01/20 11:51:59;;;;;;;20.70;7.82;;;;;;;-1.67;100.00;98853.91;4890681;29;20124;-62
2022/01/20 11:54:45;;;;;;;14.10;6.00;;;;;;;-1.67;100.00;98838.31;4875280;29;20079;-66
2022/01/20 11:57:30;;;;;;;11.23;5.78;;;;;;;-1.68;100.00;98854.78;4888718;29;20071;-55
2022/01/20 12:00:21;;;;;;;15.43;5.93;;;;;;;-1.59;100.00;98834.97;4893090;29;20556;-59
2022/01/20 12:03:15;;;;;;;16.63;7.05;;;;;;;-1.57;100.00;98838.50;4897669;29;20737;-59
2022/01/20 12:06:12;;;;;;;13.32;6.38;;;;;;;-1.62;100.00;98829.75;4866395;29;20085;-58
2022/01/20 12:09:17;;;;;;;13.63;6.70;;;;;;;-1.52;100.00;98851.53;4887362;29;20386;-64
2022/01/20 12:12:07;;;;;;;18.35;8.30;;;;;;;-1.64;100.00;98817.59;4893770;29;20075;-54
2022/01/20 12:14:53;;;;;;;9.60;5.35;;;;;;;-1.71;100.00;98826.16;4878563;29;20552;-57
2022/01/20 12:17:41;;;;;;;11.95;6.15;;;;;;;-1.69;100.00;98827.94;4891635;29;20055;-61
2022/01/20 12:20:27;;;;;;;12.25;6.50;;;;;;;-1.69;100.00;98853.91;4891952;29;20057;-63
2022/01/20 12:23:12;;;;;;;10.27;5.53;;;;;;;-1.73;100.00;98825.28;4890533;29;20188;-56
2022/01/20 12:26:04;;;;;;;11.82;5.72;;;;;;;-1.66;100.00;98833.16;4892793;29;20070;-67
2022/01/20 12:29:00;;;;;;;15.13;6.95;;;;;;;-1.64;100.00;98822.78;4891332;29;20109;-53
2022/01/20 12:31:57;;;;;;;13.38;6.70;;;;;;;-1.55;100.00;98818.56;4890308;29;20096;-55
2022/01/20 12:35:04;;;;;;;12.82;5.75;;;;;;;-1.62;100.00;98832.34;4891419;29;20441;-60
2022/01/20 12:37:50;;;;;;;11.23;5.85;;;;;;;-1.66;100.00;98820.16;4890220;29;20059;-62
2022/01/20 12:40:35;;;;;;;14.60;6.95;;;;;;;-1.65;100.00;98821.94;4890731;29;20063;-59
2022/01/20 12:43:20;;;;;;;17.42;6.35;;;;;;;-1.67;100.00;98818.41;4890053;29;20527;-65
2022/01/20 12:46:08;;;;;;;9.07;4.72;;;;;;;-1.74;100.00;98810.53;4888969;29;20508;-64
2022/01/20 12:48:58;;;;;;;10.90;5.65;;;;;;;-1.65;100.00;98803.75;4888667;29;20095;-62
2022/01/20 12:51:53;;;;;;;13.70;6.60;;;;;;;-1.59;100.00;98790.81;4889490;29;20103;-55
2022/01/20 12:54:40;;;;;;;12.43;6.35;;;;;;;-1.67;100.00;98815.81;4891539;29;20138;-56
2022/01/20 12:57:27;;;;;;;10.40;5.50;;;;;;;-1.69;100.00;98806.28;4875702;29;20083;-59
2022/01/20 13:00:15;;;;;;;11.00;5.75;;;;;;;-1.64;100.00;98802.00;4890111;29;20115;-55
2022/01/20 13:03:03;;;;;;;9.15;5.13;;;;;;;-1.67;100.00;98796.75;4890034;29;20787;-63
2022/01/20 13:05:52;;;;;;;15.65;5.97;;;;;;;-1.58;100.00;98791.69;4891938;29;21435;-65
2022/01/20 13:08:41;;;;;;;12.88;4.95;;;;;;;-1.67;100.00;98802.84;4891271;29;20133;-54
2022/01/20 13:11:53;;;;;;;15.00;5.90;;;;;;;-1.50;100.00;98808.25;4889522;29;20128;-58
2022/01/20 13:14:46;;;;;;;12.60;6.20;;;;;;;-1.51;100.00;98802.16;4872428;29;20088;-61
2022/01/20 13:17:35;;;;;;;11.70;5.18;;;;;;;-1.61;100.00;98809.84;4888678;29;20048;-57
2022/01/20 13:20:23;;;;;;;15.82;6.25;;;;;;;-1.63;100.00;98799.41;4888830;29;20075;-59
2022/01/20 13:23:54;;;;;;;16.33;6.20;;;;;;;-1.57;100.00;98803.81;4888436;29;20135;-57
2022/01/20 13:26:15;;;;;;;11.75;6.57;;;;;;;-1.46;100.00;98803.09;4889342;29;20075;-64
2022/01/20 13:29:05;;;;;;;11.75;5.63;;;;;;;-1.61;100.00;98789.94;4886502;29;20048;-56
2022/01/20 13:31:58;;;;;;;12.35;5.63;;;;;;;-1.60;100.00;98785.59;4890388;29;20078;-57
2022/01/20 13:34:52;;;;;;;14.98;6.00;;;;;;;-1.57;100.00;98790.81;4888689;29;20115;-68
2022/01/20 13:37:39;;;;;;;15.45;6.55;;;;;;;-1.52;100.00;98789.16;4889135;29;20394;-56
2022/01/20 13:40:25;;;;;;;13.05;5.70;;;;;;;-1.53;100.00;98780.50;4888005;29;20064;-61
2022/01/20 13:46:21;;;;;;;11.98;5.25;;;;;;;-1.45;100.00;98764.97;4890220;29;20124;-61
2022/01/20 13:49:11;;;;;;;;;;;;;;;-1.48;100.00;98781.41;4890252;29;20140;-60
2022/01/20 13:52:10;;;;;;;14.57;5.93;;;;;;;-1.51;100.00;98770.97;4887646;29;19956;-71
2022/01/20 13:54:58;;;;;;;9.00;4.35;;;;;;;-1.65;100.00;98776.88;4890333;29;20064;-58
2022/01/20 13:57:44;;;;;;;11.10;5.63;;;;;;;-1.65;100.00;98779.47;4889854;29;20052;-61
2022/01/20 14:00:35;;;;;;;11.25;5.15;;;;;;;-1.59;100.00;98770.03;4885750;29;20124;-62
2022/01/20 14:03:21;;;;;;;11.27;6.20;;;;;;;-1.46;100.00;98768.44;4887464;29;20055;-56
2022/01/20 14:06:06;;;;;;;13.65;6.50;;;;;;;-1.38;100.00;98761.59;4888543;29;20083;-59
2022/01/20 14:08:52;;;;;;;12.77;5.65;;;;;;;-1.44;100.00;98746.81;4887029;29;20055;-59
2022/01/20 14:11:41;;;;;;;13.30;6.28;;;;;;;-1.33;100.00;98744.31;4889273;29;20051;-59
2022/01/20 14:14:26;;;;;;;14.43;6.70;;;;;;;-1.31;100.00;98738.25;4887491;29;20063;-60
2022/01/20 14:17:20;;;;;;;12.60;6.30;;;;;;;-1.39;100.00;98747.72;4890120;29;20059;-59
2022/01/20 14:20:12;;;;;;;12.00;5.60;;;;;;;-1.40;100.00;98719.09;4887372;29;20055;-64
2022/01/20 14:23:02;;;;;;;14.10;6.40;;;;;;;-1.33;100.00;98739.13;4885255;29;20115;-59
2022/01/20 14:25:48;;;;;;;13.13;6.40;;;;;;;-1.41;100.00;98745.97;4887689;29;20196;-55
2022/01/20 14:28:34;;;;;;;11.57;5.93;;;;;;;-1.48;100.00;98728.56;4887051;29;20043;-58